sensor_id;sensor_type;location;lat;lon;timestamp;P1;durP1;ratioP1;P2;durP2;ratioP2
63801;SDS011;49949;43.060;25.624;2023-03-08T00:01:33;68.15;;;22.15;;
63801;SDS011;49949;43.060;25.624;2023-03-08T00:04:01;55.67;;;20.08;;
63801;SDS011;49949;43.060;25.624;2023-03-08T00:06:42;47.58;;;19.63;;
63801;SDS011;49949;43.060;25.624;2023-03-08T00:09:09;51.00;;;19.00;;
63801;SDS011;49949;43.060;25.624;2023-03-08T00:11:36;46.40;;;19.73;;
63801;SDS011;49949;43.060;25.624;2023-03-08T00:14:06;54.20;;;19.70;;
63801;SDS011;49949;43.060;25.624;2023-03-08T00:16:55;45.92;;;19.55;;
63801;SDS011;49949;43.060;25.624;2023-03-08T00:19:21;52.88;;;19.85;;
63801;SDS011;49949;43.060;25.624;2023-03-08T00:21:47;50.30;;;20.67;;
63801;SDS011;49949;43.060;25.624;2023-03-08T00:24:13;50.90;;;20.80;;
63801;SDS011;49949;43.060;25.624;2023-03-08T00:26:42;56.17;;;21.27;;
63801;SDS011;49949;43.060;25.624;2023-03-08T00:29:17;48.65;;;19.90;;
63801;SDS011;49949;43.060;25.624;2023-03-08T00:31:44;55.97;;;22.42;;
63801;SDS011;49949;43.060;25.624;2023-03-08T00:36:55;46.97;;;20.90;;
63801;SDS011;49949;43.060;25.624;2023-03-08T00:39:35;55.08;;;20.83;;
63801;SDS011;49949;43.060;25.624;2023-03-08T00:42:07;48.80;;;19.88;;
63801;SDS011;49949;43.060;25.624;2023-03-08T00:44:44;45.00;;;20.30;;
63801;SDS011;49949;43.060;25.624;2023-03-08T00:47:11;54.35;;;20.48;;
63801;SDS011;49949;43.060;25.624;2023-03-08T00:49:37;57.80;;;21.77;;
63801;SDS011;49949;43.060;25.624;2023-03-08T00:52:09;47.60;;;19.27;;
63801;SDS011;49949;43.060;25.624;2023-03-08T00:54:43;44.05;;;20.02;;
63801;SDS011;49949;43.060;25.624;2023-03-08T00:57:23;46.72;;;20.02;;
63801;SDS011;49949;43.060;25.624;2023-03-08T00:59:50;49.30;;;20.10;;
63801;SDS011;49949;43.060;25.624;2023-03-08T01:02:21;52.95;;;20.30;;
63801;SDS011;49949;43.060;25.624;2023-03-08T01:04:47;45.55;;;19.73;;
63801;SDS011;49949;43.060;25.624;2023-03-08T01:07:14;44.72;;;20.52;;
63801;SDS011;49949;43.060;25.624;2023-03-08T01:09:40;46.25;;;20.30;;
63801;SDS011;49949;43.060;25.624;2023-03-08T01:12:11;44.28;;;19.90;;
63801;SDS011;49949;43.060;25.624;2023-03-08T01:14:39;43.67;;;19.80;;
63801;SDS011;49949;43.060;25.624;2023-03-08T01:17:46;44.28;;;19.13;;
63801;SDS011;49949;43.060;25.624;2023-03-08T01:21:02;44.20;;;19.25;;
63801;SDS011;49949;43.060;25.624;2023-03-08T01:23:33;46.38;;;20.23;;
63801;SDS011;49949;43.060;25.624;2023-03-08T01:26:12;47.35;;;20.63;;
63801;SDS011;49949;43.060;25.624;2023-03-08T01:28:56;44.05;;;20.33;;
63801;SDS011;49949;43.060;25.624;2023-03-08T01:31:23;54.92;;;20.38;;
63801;SDS011;49949;43.060;25.624;2023-03-08T01:34:04;46.47;;;21.27;;
63801;SDS011;49949;43.060;25.624;2023-03-08T01:36:38;47.05;;;21.50;;
63801;SDS011;49949;43.060;25.624;2023-03-08T01:39:06;51.25;;;20.90;;
63801;SDS011;49949;43.060;25.624;2023-03-08T01:41:33;52.72;;;22.90;;
63801;SDS011;49949;43.060;25.624;2023-03-08T01:44:05;58.55;;;22.55;;
63801;SDS011;49949;43.060;25.624;2023-03-08T01:46:35;55.75;;;23.08;;
63801;SDS011;49949;43.060;25.624;2023-03-08T01:49:30;50.83;;;21.13;;
63801;SDS011;49949;43.060;25.624;2023-03-08T01:52:05;45.55;;;20.38;;
63801;SDS011;49949;43.060;25.624;2023-03-08T01:54:34;44.95;;;19.80;;
63801;SDS011;49949;43.060;25.624;2023-03-08T01:57:07;54.78;;;22.23;;
63801;SDS011;49949;43.060;25.624;2023-03-08T01:59:42;51.42;;;20.73;;
63801;SDS011;49949;43.060;25.624;2023-03-08T02:02:10;44.03;;;20.13;;
63801;SDS011;49949;43.060;25.624;2023-03-08T02:04:38;46.85;;;20.80;;
63801;SDS011;49949;43.060;25.624;2023-03-08T02:07:04;50.95;;;21.70;;
63801;SDS011;49949;43.060;25.624;2023-03-08T02:09:32;36.30;;;18.50;;
63801;SDS011;49949;43.060;25.624;2023-03-08T02:12:11;40.95;;;18.38;;
63801;SDS011;49949;43.060;25.624;2023-03-08T02:14:41;42.90;;;17.38;;
63801;SDS011;49949;43.060;25.624;2023-03-08T02:17:09;37.95;;;18.00;;
63801;SDS011;49949;43.060;25.624;2023-03-08T02:22:16;35.42;;;17.00;;
63801;SDS011;49949;43.060;25.624;2023-03-08T02:24:47;35.15;;;17.55;;
63801;SDS011;49949;43.060;25.624;2023-03-08T02:27:13;32.53;;;16.42;;
63801;SDS011;49949;43.060;25.624;2023-03-08T02:30:01;32.70;;;16.27;;
63801;SDS011;49949;43.060;25.624;2023-03-08T02:32:27;33.15;;;15.13;;
63801;SDS011;49949;43.060;25.624;2023-03-08T02:35:04;43.38;;;15.05;;
63801;SDS011;49949;43.060;25.624;2023-03-08T02:37:39;37.13;;;16.75;;
63801;SDS011;49949;43.060;25.624;2023-03-08T02:40:07;37.72;;;16.10;;
63801;SDS011;49949;43.060;25.624;2023-03-08T02:42:35;38.85;;;17.15;;
63801;SDS011;49949;43.060;25.624;2023-03-08T02:45:03;45.97;;;20.77;;
63801;SDS011;49949;43.060;25.624;2023-03-08T02:47:29;33.65;;;16.05;;
63801;SDS011;49949;43.060;25.624;2023-03-08T02:49:56;32.08;;;16.35;;
63801;SDS011;49949;43.060;25.624;2023-03-08T02:52:25;30.10;;;14.38;;
63801;SDS011;49949;43.060;25.624;2023-03-08T02:54:52;44.88;;;17.40;;
63801;SDS011;49949;43.060;25.624;2023-03-08T02:57:18;81.05;;;20.48;;
63801;SDS011;49949;43.060;25.624;2023-03-08T02:59:45;74.50;;;21.33;;
63801;SDS011;49949;43.060;25.624;2023-03-08T03:02:13;75.25;;;21.95;;
63801;SDS011;49949;43.060;25.624;2023-03-08T03:04:42;47.95;;;22.40;;
63801;SDS011;49949;43.060;25.624;2023-03-08T03:07:08;59.45;;;22.98;;
63801;SDS011;49949;43.060;25.624;2023-03-08T03:09:39;48.00;;;20.67;;
63801;SDS011;49949;43.060;25.624;2023-03-08T03:12:05;51.55;;;20.23;;
63801;SDS011;49949;43.060;25.624;2023-03-08T03:14:31;51.63;;;22.70;;
63801;SDS011;49949;43.060;25.624;2023-03-08T03:17:03;65.78;;;22.75;;
63801;SDS011;49949;43.060;25.624;2023-03-08T03:19:30;59.45;;;23.60;;
63801;SDS011;49949;43.060;25.624;2023-03-08T03:21:56;51.72;;;24.65;;
63801;SDS011;49949;43.060;25.624;2023-03-08T03:24:26;55.75;;;22.63;;
63801;SDS011;49949;43.060;25.624;2023-03-08T03:26:56;61.42;;;23.70;;
63801;SDS011;49949;43.060;25.624;2023-03-08T03:29:21;61.40;;;24.48;;
63801;SDS011;49949;43.060;25.624;2023-03-08T03:31:54;56.58;;;24.08;;
63801;SDS011;49949;43.060;25.624;2023-03-08T03:34:20;68.90;;;23.15;;
63801;SDS011;49949;43.060;25.624;2023-03-08T03:36:53;55.03;;;22.75;;
63801;SDS011;49949;43.060;25.624;2023-03-08T03:39:25;52.92;;;23.58;;
63801;SDS011;49949;43.060;25.624;2023-03-08T03:41:57;66.07;;;24.90;;
63801;SDS011;49949;43.060;25.624;2023-03-08T03:44:24;53.20;;;24.20;;
63801;SDS011;49949;43.060;25.624;2023-03-08T03:46:53;53.00;;;23.35;;
63801;SDS011;49949;43.060;25.624;2023-03-08T03:49:18;50.60;;;23.85;;
63801;SDS011;49949;43.060;25.624;2023-03-08T03:51:56;75.97;;;26.10;;
63801;SDS011;49949;43.060;25.624;2023-03-08T03:54:27;55.47;;;24.23;;
63801;SDS011;49949;43.060;25.624;2023-03-08T03:56:53;58.72;;;24.58;;
63801;SDS011;49949;43.060;25.624;2023-03-08T03:59:23;56.97;;;25.08;;
63801;SDS011;49949;43.060;25.624;2023-03-08T04:01:50;67.78;;;25.52;;
63801;SDS011;49949;43.060;25.624;2023-03-08T04:04:49;54.47;;;23.88;;
63801;SDS011;49949;43.060;25.624;2023-03-08T04:07:16;63.03;;;24.58;;
63801;SDS011;49949;43.060;25.624;2023-03-08T04:09:44;55.83;;;24.60;;
63801;SDS011;49949;43.060;25.624;2023-03-08T04:12:12;54.40;;;25.17;;
63801;SDS011;49949;43.060;25.624;2023-03-08T04:14:40;58.97;;;23.63;;
63801;SDS011;49949;43.060;25.624;2023-03-08T04:17:06;63.72;;;23.38;;
63801;SDS011;49949;43.060;25.624;2023-03-08T04:19:32;59.80;;;22.30;;
63801;SDS011;49949;43.060;25.624;2023-03-08T04:22:00;48.55;;;18.67;;
63801;SDS011;49949;43.060;25.624;2023-03-08T04:24:27;53.53;;;21.10;;
63801;SDS011;49949;43.060;25.624;2023-03-08T04:27:03;51.58;;;19.25;;
63801;SDS011;49949;43.060;25.624;2023-03-08T04:29:45;51.50;;;19.00;;
63801;SDS011;49949;43.060;25.624;2023-03-08T04:32:20;51.95;;;17.95;;
63801;SDS011;49949;43.060;25.624;2023-03-08T04:34:53;39.60;;;17.30;;
63801;SDS011;49949;43.060;25.624;2023-03-08T04:37:18;40.88;;;17.48;;
63801;SDS011;49949;43.060;25.624;2023-03-08T04:39:55;38.58;;;16.70;;
63801;SDS011;49949;43.060;25.624;2023-03-08T04:42:24;50.70;;;19.40;;
63801;SDS011;49949;43.060;25.624;2023-03-08T04:44:50;54.13;;;18.08;;
63801;SDS011;49949;43.060;25.624;2023-03-08T04:47:15;53.63;;;18.88;;
63801;SDS011;49949;43.060;25.624;2023-03-08T04:49:41;46.72;;;18.80;;
63801;SDS011;49949;43.060;25.624;2023-03-08T04:52:07;58.78;;;19.95;;
63801;SDS011;49949;43.060;25.624;2023-03-08T04:54:41;60.17;;;21.30;;
63801;SDS011;49949;43.060;25.624;2023-03-08T04:57:17;56.00;;;19.17;;
63801;SDS011;49949;43.060;25.624;2023-03-08T05:00:40;63.83;;;19.75;;
63801;SDS011;49949;43.060;25.624;2023-03-08T05:03:12;84.50;;;20.67;;
63801;SDS011;49949;43.060;25.624;2023-03-08T05:05:58;84.65;;;21.42;;
63801;SDS011;49949;43.060;25.624;2023-03-08T05:08:26;59.17;;;20.95;;
63801;SDS011;49949;43.060;25.624;2023-03-08T05:10:54;85.53;;;21.52;;
63801;SDS011;49949;43.060;25.624;2023-03-08T05:13:22;70.05;;;22.60;;
63801;SDS011;49949;43.060;25.624;2023-03-08T05:15:49;89.25;;;25.17;;
63801;SDS011;49949;43.060;25.624;2023-03-08T05:18:29;176.13;;;30.83;;
63801;SDS011;49949;43.060;25.624;2023-03-08T05:21:02;89.90;;;22.50;;
63801;SDS011;49949;43.060;25.624;2023-03-08T05:23:36;74.40;;;21.20;;
63801;SDS011;49949;43.060;25.624;2023-03-08T05:26:05;66.40;;;22.75;;
63801;SDS011;49949;43.060;25.624;2023-03-08T05:28:33;64.15;;;21.83;;
63801;SDS011;49949;43.060;25.624;2023-03-08T05:31:13;78.07;;;23.10;;
63801;SDS011;49949;43.060;25.624;2023-03-08T05:33:52;93.25;;;27.10;;
63801;SDS011;49949;43.060;25.624;2023-03-08T05:36:18;89.90;;;28.80;;
63801;SDS011;49949;43.060;25.624;2023-03-08T05:38:45;78.47;;;24.85;;
63801;SDS011;49949;43.060;25.624;2023-03-08T05:41:17;110.10;;;26.00;;
63801;SDS011;49949;43.060;25.624;2023-03-08T05:43:49;89.90;;;28.40;;
63801;SDS011;49949;43.060;25.624;2023-03-08T05:46:15;80.07;;;26.67;;
63801;SDS011;49949;43.060;25.624;2023-03-08T05:48:43;99.80;;;25.48;;
63801;SDS011;49949;43.060;25.624;2023-03-08T05:51:13;72.05;;;23.08;;
63801;SDS011;49949;43.060;25.624;2023-03-08T05:53:41;91.53;;;25.95;;
63801;SDS011;49949;43.060;25.624;2023-03-08T05:56:11;120.82;;;31.15;;
63801;SDS011;49949;43.060;25.624;2023-03-08T05:58:41;117.30;;;28.75;;
63801;SDS011;49949;43.060;25.624;2023-03-08T06:01:20;139.45;;;30.52;;
63801;SDS011;49949;43.060;25.624;2023-03-08T06:03:55;176.05;;;31.45;;
63801;SDS011;49949;43.060;25.624;2023-03-08T06:06:26;92.72;;;26.20;;
63801;SDS011;49949;43.060;25.624;2023-03-08T06:08:53;132.05;;;27.77;;
63801;SDS011;49949;43.060;25.624;2023-03-08T06:11:22;117.13;;;30.70;;
63801;SDS011;49949;43.060;25.624;2023-03-08T06:13:52;120.25;;;31.10;;
63801;SDS011;49949;43.060;25.624;2023-03-08T06:16:21;93.82;;;28.25;;
63801;SDS011;49949;43.060;25.624;2023-03-08T06:18:50;161.85;;;38.78;;
63801;SDS011;49949;43.060;25.624;2023-03-08T06:21:19;255.30;;;74.88;;
63801;SDS011;49949;43.060;25.624;2023-03-08T06:23:48;296.23;;;84.07;;
63801;SDS011;49949;43.060;25.624;2023-03-08T06:26:18;304.05;;;76.82;;
63801;SDS011;49949;43.060;25.624;2023-03-08T06:28:56;268.33;;;75.00;;
63801;SDS011;49949;43.060;25.624;2023-03-08T06:31:24;229.43;;;57.88;;
63801;SDS011;49949;43.060;25.624;2023-03-08T06:33:51;244.02;;;61.80;;
63801;SDS011;49949;43.060;25.624;2023-03-08T06:36:18;237.90;;;55.50;;
63801;SDS011;49949;43.060;25.624;2023-03-08T06:38:52;231.07;;;65.10;;
63801;SDS011;49949;43.060;25.624;2023-03-08T06:41:19;208.32;;;47.15;;
63801;SDS011;49949;43.060;25.624;2023-03-08T06:43:46;165.65;;;37.78;;
63801;SDS011;49949;43.060;25.624;2023-03-08T06:46:13;146.05;;;34.55;;
63801;SDS011;49949;43.060;25.624;2023-03-08T06:48:45;110.20;;;25.98;;
63801;SDS011;49949;43.060;25.624;2023-03-08T06:51:23;82.30;;;20.73;;
63801;SDS011;49949;43.060;25.624;2023-03-08T06:53:49;86.35;;;19.92;;
63801;SDS011;49949;43.060;25.624;2023-03-08T06:56:15;114.00;;;23.20;;
63801;SDS011;49949;43.060;25.624;2023-03-08T06:58:42;66.78;;;18.35;;
63801;SDS011;49949;43.060;25.624;2023-03-08T07:01:13;60.40;;;17.92;;
63801;SDS011;49949;43.060;25.624;2023-03-08T07:03:40;60.03;;;19.38;;
63801;SDS011;49949;43.060;25.624;2023-03-08T07:06:09;180.30;;;30.83;;
63801;SDS011;49949;43.060;25.624;2023-03-08T07:11:11;104.07;;;38.72;;
63801;SDS011;49949;43.060;25.624;2023-03-08T07:13:40;142.18;;;46.38;;
63801;SDS011;49949;43.060;25.624;2023-03-08T07:16:11;133.25;;;46.28;;
63801;SDS011;49949;43.060;25.624;2023-03-08T07:18:38;145.10;;;46.22;;
63801;SDS011;49949;43.060;25.624;2023-03-08T07:21:04;134.57;;;44.17;;
63801;SDS011;49949;43.060;25.624;2023-03-08T07:23:54;116.50;;;46.33;;
63801;SDS011;49949;43.060;25.624;2023-03-08T07:26:20;115.65;;;42.95;;
63801;SDS011;49949;43.060;25.624;2023-03-08T07:28:51;117.13;;;44.60;;
63801;SDS011;49949;43.060;25.624;2023-03-08T07:31:17;116.10;;;45.95;;
63801;SDS011;49949;43.060;25.624;2023-03-08T07:33:43;157.10;;;46.75;;
63801;SDS011;49949;43.060;25.624;2023-03-08T07:36:10;111.22;;;43.28;;
63801;SDS011;49949;43.060;25.624;2023-03-08T07:38:36;96.03;;;35.58;;
63801;SDS011;49949;43.060;25.624;2023-03-08T07:41:04;713.45;;;54.33;;
63801;SDS011;49949;43.060;25.624;2023-03-08T07:43:30;94.75;;;33.60;;
63801;SDS011;49949;43.060;25.624;2023-03-08T07:46:00;79.28;;;28.02;;
63801;SDS011;49949;43.060;25.624;2023-03-08T07:51:09;60.92;;;27.30;;
63801;SDS011;49949;43.060;25.624;2023-03-08T07:53:36;41.50;;;19.73;;
63801;SDS011;49949;43.060;25.624;2023-03-08T07:56:03;70.57;;;15.00;;
63801;SDS011;49949;43.060;25.624;2023-03-08T07:58:37;93.70;;;21.08;;
63801;SDS011;49949;43.060;25.624;2023-03-08T08:01:10;159.15;;;19.52;;
63801;SDS011;49949;43.060;25.624;2023-03-08T08:03:37;61.85;;;17.60;;
63801;SDS011;49949;43.060;25.624;2023-03-08T08:06:09;36.33;;;13.95;;
63801;SDS011;49949;43.060;25.624;2023-03-08T08:09:01;110.18;;;16.48;;
63801;SDS011;49949;43.060;25.624;2023-03-08T08:11:28;38.47;;;14.25;;
63801;SDS011;49949;43.060;25.624;2023-03-08T08:13:58;238.90;;;18.15;;
63801;SDS011;49949;43.060;25.624;2023-03-08T08:16:24;32.70;;;13.00;;
63801;SDS011;49949;43.060;25.624;2023-03-08T08:19:01;103.18;;;15.82;;
63801;SDS011;49949;43.060;25.624;2023-03-08T08:21:38;38.78;;;13.30;;
63801;SDS011;49949;43.060;25.624;2023-03-08T08:24:05;41.28;;;13.50;;
63801;SDS011;49949;43.060;25.624;2023-03-08T08:26:34;41.50;;;13.57;;
63801;SDS011;49949;43.060;25.624;2023-03-08T08:29:02;31.35;;;12.85;;
63801;SDS011;49949;43.060;25.624;2023-03-08T08:31:30;286.45;;;24.95;;
63801;SDS011;49949;43.060;25.624;2023-03-08T08:34:30;91.78;;;15.07;;
63801;SDS011;49949;43.060;25.624;2023-03-08T08:37:08;109.28;;;13.15;;
63801;SDS011;49949;43.060;25.624;2023-03-08T08:39:34;30.20;;;11.30;;
63801;SDS011;49949;43.060;25.624;2023-03-08T08:42:12;45.20;;;12.48;;
63801;SDS011;49949;43.060;25.624;2023-03-08T08:44:37;46.17;;;12.82;;
63801;SDS011;49949;43.060;25.624;2023-03-08T08:47:03;30.75;;;11.80;;
63801;SDS011;49949;43.060;25.624;2023-03-08T08:49:34;23.83;;;11.05;;
63801;SDS011;49949;43.060;25.624;2023-03-08T08:52:00;25.80;;;10.95;;
63801;SDS011;49949;43.060;25.624;2023-03-08T08:54:37;19.45;;;9.32;;
63801;SDS011;49949;43.060;25.624;2023-03-08T08:57:08;18.83;;;8.35;;
63801;SDS011;49949;43.060;25.624;2023-03-08T08:59:43;25.60;;;8.88;;
63801;SDS011;49949;43.060;25.624;2023-03-08T09:02:10;12.57;;;6.45;;
63801;SDS011;49949;43.060;25.624;2023-03-08T09:04:37;11.80;;;6.90;;
63801;SDS011;49949;43.060;25.624;2023-03-08T09:07:04;15.95;;;7.22;;
63801;SDS011;49949;43.060;25.624;2023-03-08T09:09:39;9.75;;;5.00;;
63801;SDS011;49949;43.060;25.624;2023-03-08T09:12:05;8.93;;;4.00;;
63801;SDS011;49949;43.060;25.624;2023-03-08T09:14:42;6.97;;;2.67;;
63801;SDS011;49949;43.060;25.624;2023-03-08T09:17:09;20.33;;;2.63;;
63801;SDS011;49949;43.060;25.624;2023-03-08T09:19:39;2.88;;;2.30;;
63801;SDS011;49949;43.060;25.624;2023-03-08T09:22:06;8.48;;;2.13;;
63801;SDS011;49949;43.060;25.624;2023-03-08T09:24:32;3.85;;;1.95;;
63801;SDS011;49949;43.060;25.624;2023-03-08T09:27:00;3.58;;;1.90;;
63801;SDS011;49949;43.060;25.624;2023-03-08T09:29:25;10.80;;;2.42;;
63801;SDS011;49949;43.060;25.624;2023-03-08T09:31:53;10.48;;;1.88;;
63801;SDS011;49949;43.060;25.624;2023-03-08T09:34:25;4.97;;;1.67;;
63801;SDS011;49949;43.060;25.624;2023-03-08T09:36:52;10.98;;;2.13;;
63801;SDS011;49949;43.060;25.624;2023-03-08T09:39:23;27.58;;;4.43;;
63801;SDS011;49949;43.060;25.624;2023-03-08T09:41:53;16.15;;;2.50;;
63801;SDS011;49949;43.060;25.624;2023-03-08T09:52:58;4.22;;;1.80;;
63801;SDS011;49949;43.060;25.624;2023-03-08T09:55:31;85.18;;;5.70;;
63801;SDS011;49949;43.060;25.624;2023-03-08T09:58:16;13.68;;;2.33;;
63801;SDS011;49949;43.060;25.624;2023-03-08T10:01:00;21.92;;;2.17;;
63801;SDS011;49949;43.060;25.624;2023-03-08T10:12:00;4.70;;;2.03;;
63801;SDS011;49949;43.060;25.624;2023-03-08T10:14:38;8.32;;;2.20;;
63801;SDS011;49949;43.060;25.624;2023-03-08T10:17:19;5.97;;;1.80;;
63801;SDS011;49949;43.060;25.624;2023-03-08T10:22:25;8.52;;;1.83;;
63801;SDS011;49949;43.060;25.624;2023-03-08T10:25:25;11.38;;;2.40;;
63801;SDS011;49949;43.060;25.624;2023-03-08T10:28:01;5.47;;;1.30;;
63801;SDS011;49949;43.060;25.624;2023-03-08T10:30:47;2.88;;;0.98;;
63801;SDS011;49949;43.060;25.624;2023-03-08T10:33:18;4.45;;;1.75;;
63801;SDS011;49949;43.060;25.624;2023-03-08T10:35:54;8.68;;;1.33;;
63801;SDS011;49949;43.060;25.624;2023-03-08T10:38:25;5.13;;;1.60;;
63801;SDS011;49949;43.060;25.624;2023-03-08T10:41:14;2.83;;;1.85;;
63801;SDS011;49949;43.060;25.624;2023-03-08T10:43:53;4.53;;;1.20;;
63801;SDS011;49949;43.060;25.624;2023-03-08T10:46:25;4.65;;;1.30;;
63801;SDS011;49949;43.060;25.624;2023-03-08T10:48:54;4.28;;;1.23;;
63801;SDS011;49949;43.060;25.624;2023-03-08T10:51:31;9.88;;;1.52;;
63801;SDS011;49949;43.060;25.624;2023-03-08T10:54:02;2.28;;;0.90;;
63801;SDS011;49949;43.060;25.624;2023-03-08T11:04:15;9.70;;;2.78;;
63801;SDS011;49949;43.060;25.624;2023-03-08T11:06:47;13.43;;;2.03;;
63801;SDS011;49949;43.060;25.624;2023-03-08T11:09:27;4.43;;;2.00;;
63801;SDS011;49949;43.060;25.624;2023-03-08T11:11:55;26.02;;;2.00;;
63801;SDS011;49949;43.060;25.624;2023-03-08T11:14:29;3.67;;;1.15;;
63801;SDS011;49949;43.060;25.624;2023-03-08T11:22:55;15.30;;;2.22;;
63801;SDS011;49949;43.060;25.624;2023-03-08T11:25:30;2.13;;;1.25;;
63801;SDS011;49949;43.060;25.624;2023-03-08T11:36:13;48.80;;;3.30;;
63801;SDS011;49949;43.060;25.624;2023-03-08T11:38:56;1.70;;;1.05;;
63801;SDS011;49949;43.060;25.624;2023-03-08T11:41:26;17.67;;;2.25;;
63801;SDS011;49949;43.060;25.624;2023-03-08T11:50:30;3.25;;;1.33;;
63801;SDS011;49949;43.060;25.624;2023-03-08T11:53:16;9.68;;;2.00;;
63801;SDS011;49949;43.060;25.624;2023-03-08T12:01:28;5.75;;;1.38;;
63801;SDS011;49949;43.060;25.624;2023-03-08T12:04:15;3.67;;;1.10;;
63801;SDS011;49949;43.060;25.624;2023-03-08T12:07:15;7.47;;;1.40;;
63801;SDS011;49949;43.060;25.624;2023-03-08T12:10:02;4.75;;;1.00;;
63801;SDS011;49949;43.060;25.624;2023-03-08T12:12:52;5.22;;;1.20;;
63801;SDS011;49949;43.060;25.624;2023-03-08T12:15:32;10.82;;;1.38;;
63801;SDS011;49949;43.060;25.624;2023-03-08T12:18:10;3.70;;;0.77;;
63801;SDS011;49949;43.060;25.624;2023-03-08T12:20:43;6.18;;;1.10;;
63801;SDS011;49949;43.060;25.624;2023-03-08T12:29:02;5.00;;;1.30;;
63801;SDS011;49949;43.060;25.624;2023-03-08T12:31:51;4.55;;;1.08;;
63801;SDS011;49949;43.060;25.624;2023-03-08T12:37:01;1.50;;;0.90;;
63801;SDS011;49949;43.060;25.624;2023-03-08T12:39:31;12.77;;;2.25;;
63801;SDS011;49949;43.060;25.624;2023-03-08T12:42:13;5.15;;;0.98;;
63801;SDS011;49949;43.060;25.624;2023-03-08T12:44:40;1.27;;;0.98;;
63801;SDS011;49949;43.060;25.624;2023-03-08T12:49:44;5.22;;;1.17;;
63801;SDS011;49949;43.060;25.624;2023-03-08T12:57:55;6.32;;;1.60;;
63801;SDS011;49949;43.060;25.624;2023-03-08T13:00:36;5.13;;;1.30;;
63801;SDS011;49949;43.060;25.624;2023-03-08T13:05:38;26.33;;;2.10;;
63801;SDS011;49949;43.060;25.624;2023-03-08T13:10:51;2.33;;;1.08;;
63801;SDS011;49949;43.060;25.624;2023-03-08T13:27:06;28.25;;;2.67;;
63801;SDS011;49949;43.060;25.624;2023-03-08T13:29:48;0.90;;;0.90;;
63801;SDS011;49949;43.060;25.624;2023-03-08T13:32:20;1.40;;;0.90;;
63801;SDS011;49949;43.060;25.624;2023-03-08T13:35:01;2.00;;;0.80;;
63801;SDS011;49949;43.060;25.624;2023-03-08T13:37:28;6.68;;;1.20;;
63801;SDS011;49949;43.060;25.624;2023-03-08T13:39:57;6.07;;;1.40;;
63801;SDS011;49949;43.060;25.624;2023-03-08T13:42:25;64.60;;;3.10;;
63801;SDS011;49949;43.060;25.624;2023-03-08T13:45:04;29.40;;;2.53;;
63801;SDS011;49949;43.060;25.624;2023-03-08T13:47:44;22.00;;;2.38;;
63801;SDS011;49949;43.060;25.624;2023-03-08T13:50:19;21.63;;;1.80;;
63801;SDS011;49949;43.060;25.624;2023-03-08T13:52:49;13.13;;;2.65;;
63801;SDS011;49949;43.060;25.624;2023-03-08T13:55:22;30.48;;;2.00;;
63801;SDS011;49949;43.060;25.624;2023-03-08T13:57:55;6.28;;;1.42;;
63801;SDS011;49949;43.060;25.624;2023-03-08T14:00:27;71.28;;;4.15;;
